createdAt,value
2023-03-20T00:03:02.215Z,0.00
2023-03-20T00:08:02.146Z,0.00
2023-03-20T00:13:02.023Z,0.00
2023-03-20T00:18:01.959Z,0.00
2023-03-20T00:23:01.896Z,0.00
2023-03-20T00:28:01.873Z,0.00
2023-03-20T00:33:01.822Z,0.00
2023-03-20T00:38:01.760Z,0.00
2023-03-20T00:43:01.652Z,0.00
2023-03-20T00:48:01.635Z,0.00
2023-03-20T00:53:01.558Z,0.00
2023-03-20T00:58:01.651Z,0.00
2023-03-20T01:03:11.452Z,0.00
2023-03-20T01:08:01.483Z,0.00
2023-03-20T01:13:03.457Z,0.00
2023-03-20T01:18:01.400Z,0.00
2023-03-20T01:23:01.393Z,0.00
2023-03-20T01:28:03.284Z,0.00
2023-03-20T01:33:02.218Z,0.00
2023-03-20T01:38:02.275Z,0.00
2023-03-20T01:43:01.034Z,0.00
2023-03-20T01:48:00.959Z,0.00
2023-03-20T01:53:00.904Z,0.00
2023-03-20T01:58:00.854Z,0.00
2023-03-20T02:03:00.823Z,0.00
2023-03-20T02:08:00.741Z,0.00
2023-03-20T02:13:00.683Z,0.00
2023-03-20T02:18:00.668Z,0.00
2023-03-20T02:23:00.576Z,0.00
2023-03-20T02:28:00.620Z,0.00
2023-03-20T02:33:00.609Z,0.00
2023-03-20T02:38:00.632Z,0.00
2023-03-20T02:43:00.563Z,0.00
2023-03-20T02:48:00.486Z,0.00
2023-03-20T02:53:00.368Z,0.00
2023-03-20T02:58:00.400Z,0.00
2023-03-20T03:03:00.406Z,0.00
2023-03-20T03:08:00.278Z,0.00
2023-03-20T03:13:00.208Z,0.00
2023-03-20T03:17:59.971Z,0.00
2023-03-20T03:22:59.930Z,0.00
2023-03-20T03:27:59.863Z,0.00
2023-03-20T03:32:59.850Z,0.00
2023-03-20T03:37:59.805Z,0.00
2023-03-20T03:42:59.709Z,0.00
2023-03-20T03:47:59.673Z,0.00
2023-03-20T03:52:59.647Z,0.00
2023-03-20T03:58:00.673Z,0.00
2023-03-20T04:02:59.582Z,0.00
2023-03-20T04:07:59.647Z,0.00
2023-03-20T04:13:00.504Z,0.00
2023-03-20T04:17:59.533Z,0.00
2023-03-20T04:22:59.457Z,0.00
2023-03-20T04:28:07.889Z,0.00
2023-03-20T04:32:59.201Z,0.00
2023-03-20T04:38:00.239Z,0.00
2023-03-20T04:42:59.078Z,0.00
2023-03-20T04:47:58.999Z,0.00
2023-03-20T04:52:58.949Z,0.00
2023-03-20T04:57:58.908Z,0.00
2023-03-20T05:02:58.874Z,0.00
2023-03-20T05:07:58.807Z,0.00
2023-03-20T05:12:58.730Z,0.00
2023-03-20T05:17:58.638Z,0.00
2023-03-20T05:22:58.596Z,0.00
2023-03-20T05:27:58.555Z,5.62
2023-03-20T05:32:58.641Z,11.25
2023-03-20T05:37:58.558Z,16.88
2023-03-20T05:42:58.472Z,22.50
2023-03-20T05:47:58.417Z,28.12
2023-03-20T05:52:58.318Z,39.38
2023-03-20T05:57:58.357Z,56.25
2023-03-20T06:02:58.266Z,78.75
2023-03-20T06:07:58.135Z,106.88
2023-03-20T06:12:58.122Z,140.62
2023-03-20T06:17:58.207Z,185.62
2023-03-20T06:22:57.955Z,168.75
2023-03-20T06:27:57.923Z,163.12
2023-03-20T06:32:58.057Z,157.50
2023-03-20T06:37:57.916Z,151.88
2023-03-20T06:42:58.810Z,180.00
2023-03-20T06:47:58.743Z,191.25
2023-03-20T06:52:57.610Z,241.88
2023-03-20T06:57:57.718Z,286.88
2023-03-20T07:02:57.547Z,315.00
2023-03-20T07:07:57.460Z,354.38
2023-03-20T07:12:57.408Z,416.25
2023-03-20T07:17:57.449Z,438.75
2023-03-20T07:22:57.318Z,433.12
2023-03-20T07:27:57.247Z,393.75
2023-03-20T07:32:57.263Z,450.00
2023-03-20T07:37:58.338Z,495.00
2023-03-20T07:42:57.068Z,545.62
2023-03-20T07:47:57.136Z,528.75
2023-03-20T07:52:56.960Z,590.62
2023-03-20T07:57:56.933Z,742.50
2023-03-20T08:02:57.051Z,652.50
2023-03-20T08:07:56.822Z,601.88
2023-03-20T08:12:56.772Z,742.50
2023-03-20T08:17:56.745Z,967.50
2023-03-20T08:22:56.674Z,956.25
2023-03-20T08:27:56.609Z,922.50
2023-03-20T08:32:56.597Z,703.12
2023-03-20T08:37:56.482Z,697.50
2023-03-20T08:42:56.425Z,748.12
2023-03-20T08:47:56.405Z,810.00
2023-03-20T08:52:56.535Z,765.00
2023-03-20T08:57:56.313Z,742.50
2023-03-20T09:02:56.300Z,669.38
2023-03-20T09:07:56.157Z,675.00
2023-03-20T09:12:56.137Z,736.88
2023-03-20T09:17:56.043Z,787.50
2023-03-20T09:22:56.012Z,686.25
2023-03-20T09:27:55.979Z,675.00
2023-03-20T09:32:55.948Z,556.88
2023-03-20T09:37:55.843Z,686.25
2023-03-20T09:42:55.797Z,663.75
2023-03-20T09:47:55.731Z,736.88
2023-03-20T09:52:55.683Z,736.88
2023-03-20T09:57:55.603Z,742.50
2023-03-20T10:02:55.596Z,725.62
2023-03-20T10:07:55.565Z,601.88
2023-03-20T10:12:55.489Z,759.38
2023-03-20T10:17:55.423Z,826.88
2023-03-20T10:22:55.397Z,759.38
2023-03-20T10:27:55.292Z,714.38
2023-03-20T10:32:55.285Z,753.75
2023-03-20T10:37:55.185Z,843.75
2023-03-20T10:42:55.129Z,883.12
2023-03-20T10:47:55.201Z,1035.00
2023-03-20T10:52:55.056Z,990.00
2023-03-20T10:57:55.009Z,1192.50
2023-03-20T11:02:54.932Z,1091.25
2023-03-20T11:07:54.959Z,1237.50
2023-03-20T11:12:54.867Z,1327.50
2023-03-20T11:17:54.855Z,1153.12
2023-03-20T11:22:54.710Z,1192.50
2023-03-20T11:27:54.727Z,1327.50
2023-03-20T11:32:54.619Z,1389.38
2023-03-20T11:37:54.554Z,1293.75
2023-03-20T11:42:54.557Z,1271.25
2023-03-20T11:47:54.446Z,1051.88
2023-03-20T11:52:54.371Z,1046.25
2023-03-20T11:57:54.348Z,1226.25
2023-03-20T12:02:54.359Z,1175.62
2023-03-20T12:07:55.257Z,984.38
2023-03-20T12:12:54.203Z,961.88
2023-03-20T12:17:54.154Z,1198.12
2023-03-20T12:22:54.057Z,900.00
2023-03-20T12:27:54.107Z,939.38
2023-03-20T12:32:53.982Z,691.88
2023-03-20T12:37:53.994Z,596.25
2023-03-20T12:42:53.936Z,1091.25
2023-03-20T12:47:53.848Z,1226.25
2023-03-20T12:52:53.830Z,961.88
2023-03-20T12:57:53.769Z,472.50
2023-03-20T13:02:53.683Z,444.38
2023-03-20T13:07:53.563Z,877.50
2023-03-20T13:12:53.526Z,1102.50
2023-03-20T13:17:53.476Z,950.62
2023-03-20T13:22:53.390Z,894.38
2023-03-20T13:27:53.318Z,815.62
2023-03-20T13:32:53.318Z,770.62
2023-03-20T13:37:53.228Z,798.75
2023-03-20T13:42:53.172Z,765.00
2023-03-20T13:47:53.172Z,663.75
2023-03-20T13:52:54.115Z,624.38
2023-03-20T13:57:53.008Z,613.12
2023-03-20T14:02:52.941Z,663.75
2023-03-20T14:07:52.913Z,545.62
2023-03-20T14:12:52.929Z,579.38
2023-03-20T14:17:56.291Z,658.12
2023-03-20T14:22:52.760Z,736.88
2023-03-20T14:27:52.782Z,714.38
2023-03-20T14:32:52.717Z,708.75
2023-03-20T14:37:52.560Z,731.25
2023-03-20T14:42:52.522Z,714.38
2023-03-20T14:47:52.471Z,832.50
2023-03-20T14:52:52.423Z,770.62
2023-03-20T14:57:56.969Z,641.25
2023-03-20T15:02:53.288Z,545.62
2023-03-20T15:07:52.222Z,506.25
2023-03-20T15:12:52.199Z,500.62
2023-03-20T15:17:52.134Z,489.38
2023-03-20T15:22:52.064Z,466.88
2023-03-20T15:27:52.050Z,388.12
2023-03-20T15:32:52.039Z,421.88
2023-03-20T15:37:51.938Z,410.62
2023-03-20T15:42:51.888Z,427.50
2023-03-20T15:47:51.782Z,360.00
2023-03-20T15:52:51.771Z,382.50
2023-03-20T15:57:51.677Z,343.12
2023-03-20T16:02:52.765Z,315.00
2023-03-20T16:07:51.612Z,230.62
2023-03-20T16:12:51.588Z,202.50
2023-03-20T16:17:51.457Z,213.75
2023-03-20T16:22:51.445Z,168.75
2023-03-20T16:27:51.372Z,146.25
2023-03-20T16:32:51.398Z,146.25
2023-03-20T16:37:51.270Z,123.75
2023-03-20T16:42:51.210Z,151.88
2023-03-20T16:47:51.180Z,168.75
2023-03-20T16:52:51.143Z,146.25
2023-03-20T16:57:51.089Z,123.75
2023-03-20T17:02:50.980Z,101.25
2023-03-20T17:07:50.956Z,67.50
2023-03-20T17:12:50.886Z,56.25
2023-03-20T17:17:50.841Z,39.38
2023-03-20T17:22:50.752Z,22.50
2023-03-20T17:27:59.541Z,22.50
2023-03-20T17:32:50.707Z,16.88
2023-03-20T17:37:50.640Z,11.25
2023-03-20T17:42:50.649Z,5.62
2023-03-20T17:47:50.487Z,0.00
2023-03-20T17:52:50.430Z,0.00
2023-03-20T17:57:50.382Z,0.00
2023-03-20T18:02:50.368Z,0.00
2023-03-20T18:07:50.289Z,0.00
2023-03-20T18:12:50.277Z,0.00
2023-03-20T18:17:50.161Z,0.00
2023-03-20T18:22:50.124Z,0.00
2023-03-20T18:27:50.050Z,0.00
2023-03-20T18:32:51.080Z,0.00
2023-03-20T18:37:49.972Z,0.00
2023-03-20T18:42:49.905Z,0.00
2023-03-20T18:47:49.865Z,0.00
2023-03-20T18:52:49.787Z,0.00
2023-03-20T18:57:49.772Z,0.00
2023-03-20T19:02:49.731Z,0.00
2023-03-20T19:07:49.678Z,0.00
2023-03-20T19:12:49.605Z,0.00
2023-03-20T19:17:49.608Z,0.00
2023-03-20T19:22:49.532Z,0.00
2023-03-20T19:27:49.520Z,0.00
2023-03-20T19:32:49.431Z,0.00
2023-03-20T19:37:49.313Z,0.00
2023-03-20T19:43:01.727Z,0.00
2023-03-20T19:47:50.219Z,0.00
2023-03-20T19:52:49.301Z,0.00
2023-03-20T19:57:49.149Z,0.00
2023-03-20T20:02:49.198Z,0.00
2023-03-20T20:08:16.951Z,0.00
2023-03-20T20:12:49.926Z,0.00
2023-03-20T20:17:49.033Z,0.00
2023-03-20T20:22:48.913Z,0.00
2023-03-20T20:27:48.796Z,0.00
2023-03-20T20:32:48.798Z,0.00
2023-03-20T20:38:30.810Z,0.00
2023-03-20T20:42:49.656Z,0.00
2023-03-20T20:47:48.617Z,0.00
2023-03-20T20:52:48.546Z,0.00
2023-03-20T20:57:48.468Z,0.00
2023-03-20T21:02:48.634Z,0.00
2023-03-20T21:07:48.365Z,0.00
2023-03-20T21:12:58.426Z,0.00
2023-03-20T21:17:59.907Z,0.00
2023-03-20T21:22:50.193Z,0.00
2023-03-20T21:27:48.248Z,0.00
2023-03-20T21:32:48.066Z,0.00
2023-03-20T21:42:48.971Z,0.00
2023-03-20T21:48:30.056Z,0.00
2023-03-20T21:58:36.753Z,0.00
2023-03-20T22:02:49.157Z,0.00
2023-03-20T22:08:39.059Z,0.00
2023-03-20T22:18:50.944Z,0.00
2023-03-20T22:23:30.950Z,0.00
2023-03-20T22:43:05.169Z,0.00
2023-03-20T22:47:48.273Z,0.00
2023-03-20T22:52:49.382Z,0.00
2023-03-20T22:58:04.046Z,0.00
2023-03-20T23:02:48.145Z,0.00
2023-03-20T23:07:47.123Z,0.00
2023-03-20T23:12:47.057Z,0.00
2023-03-20T23:17:47.030Z,0.00
2023-03-20T23:22:46.968Z,0.00
2023-03-20T23:27:46.824Z,0.00
2023-03-20T23:32:46.831Z,0.00
2023-03-20T23:37:46.786Z,0.00
2023-03-20T23:42:46.717Z,0.00
2023-03-20T23:47:46.734Z,0.00
2023-03-20T23:52:57.180Z,0.00
2023-03-20T23:57:47.501Z,0.00
